To NAV CANADA Home Page Login to a new session Search on AWWS site Disclaimer Vers la page française équivalente Tips FAQ What's new on the site To the Forecasts and Observations / NOTAM section To "File a Flight Plan" website Publications and other links Update of the User's profile FIC Telephone Numbers My Weather Data Folder Route Weather Data Regional Weather Data Local Weather Data To the Forecasts and Observations / NOTAM section
Request Generated 03/19/2019 at 23:06:12 UTC . Weather information available at that time is displayed.

METAR/TAF

VAL-DOR/QC    (show WxCam)

METAR CYVO 192300Z 20007KT 15SM SCT065 BKN260 M00/M12 A3015 RMK SC3CI2 SLP242=
METAR CYVO 192200Z 22004KT 180V290 15SM FEW065 FEW260 01/M12 A3015 RMK SC1CI1 SLP243=
METAR CYVO 192100Z 25006G15KT 180V280 15SM FEW070 01/M14 A3017 RMK AC2 SLP247=

TAF CYVO 191740Z 1918/2006 21008KT P6SM SCT060
FM192200 20010KT P6SM BKN030 TEMPO 1922/2006 5SM -SHSN BKN020
PROB30 1922/2002 2SM -SHSN
RMK NXT FCST BY 200000Z=
Your time UTC time
Weather data provided by Environment Canada and NAV CANADA